Weather observations for the past three days for
Gillette, Gillette-Campbell County Airport
Metric (Imperial)
Date Time (mdt) Wind (kph) Vis. (km) Weather Sky Cond. Temperature (ºC) Relative Humidity Wind Chill (°C) Heat Index (°C) Pressure Precipitation (cm)
Air Dwpt 6 hour altimeter (cm) sea level (mb) 1 hr 3 hr 6 hr
Max. Min.
04 05:53 N 17 16.09 Mostly Cloudy BKN120 5.6 -1.1 10 5 62% 3 75.77 1007.8
04 04:53 N 15 16.09 A Few Clouds FEW090 5.6 -0.6 65% 3 75.67 1006.2
04 03:53 W 7 16.09 A Few Clouds FEW120 6.7 -0.6 60% 6 75.57 1004.7
04 02:53 Vrbl 6 16.09 Partly Cloudy SCT120 7.2 -0.6 58% 75.59 1005.3
04 01:53 W 15 16.09 A Few Clouds FEW120 8.3 -2.2 48% 6 75.59 1005.1
04 00:53 SW 13 16.09 Fair CLR 6.7 -1.7 55% 4 75.59 1005.5
03 23:53 SW 6 16.09 Fair CLR 7.8 -2.2 20 6.1 50% 75.62 1005.6
03 22:53 SW 11 16.09 Fair CLR 7.2 -2.2 52% 5 75.64 1006.2
03 21:53 SW 9 16.09 Fair CLR 6.7 -2.2 53% 5 75.67 1007.0
03 20:53 W 15 16.09 Fair CLR 7.8 -2.8 47% 6 75.69 1007.6
03 19:53 NW 15 16.09 Fair CLR 13.3 -2.8 33% 75.67 1006.6
03 18:53 NW 22 16.09 Fair CLR 18.9 -5 19% 75.69 1006.8
03 17:53 NW 28 16.09 Fair CLR 20 -5 21.7 14.4 18% 75.74 1007.3
03 16:53 NW 15 G 35 16.09 A Few Clouds FEW090 20.6 -2.2 22% 75.77 1007.6
03 15:53 W 31 G 46 16.09 Partly Cloudy SCT090 21.1 -2.2 21% 75.79 1008.3
03 14:53 NW 17 G 39 16.09 A Few Clouds FEW090 19.4 -0.6 26% 75.87 1009.3
03 13:53 NW 19 G 39 16.09 A Few Clouds FEW070 19.4 0.6 29% 75.92 1010.2
03 12:53 W 22 G 35 16.09 Fair CLR 17.2 1.7 35% 76 1011.5
03 11:53 SW 22 16.09 Mostly Cloudy FEW070 BKN100 17.8 0.6 18.3 5 32% 76.07 1012.5
03 10:53 SW 15 16.09 Fair CLR 16.7 0.6 34% 76.12 1013.5
03 09:53 S 24 16.09 Fair CLR 15 1.7 41% 76.17 1013.9
03 08:53 SE 15 16.09 Mostly Cloudy SCT037 SCT055 BKN070 12.2 2.2 51% 76.23 1014.6
03 07:53 S 15 16.09 Overcast FEW080 OVC100 10.6 1.1 52% 76.25 1014.4
03 06:53 Vrbl 7 16.09 Mostly Cloudy BKN120 7.8 2.2 68% 7 76.23 1014.0
03 05:53 S 6 16.09 Overcast OVC110 5.6 1.7 6.7 3.3 76% 76.23 1014.4
03 04:53 S 6 16.09 Mostly Cloudy FEW070 BKN120 4.4 1.7 83% 76.28 1014.8
03 03:53 S 7 16.09 Partly Cloudy SCT070 4.4 1.7 83% 3 76.3 1014.9
03 02:53 N 7 16.09 Fair CLR 6.1 2.2 76% 5 76.28 1014.7
03 01:53 S 6 16.09 Fair CLR 4.4 1.7 83% 76.25 1014.5
03 00:53 SW 7 16.09 Fair CLR 4.4 1.1 79% 3 76.25 1014.3
02 23:53 Calm 16.09 Fair CLR 3.9 0 20.6 2.8 76% 76.25 1014.3
02 22:53 SW 7 16.09 Fair CLR 3.9 0 76% 2 76.25 1014.6
02 21:53 S 7 16.09 Fair CLR 6.1 0 65% 5 76.25 1014.4
02 20:53 Calm 16.09 Fair CLR 10 0 50% 76.2 1013.7
02 19:53 NE 17 16.09 Fair CLR 15.6 0.6 36% 76.17 1013.2
02 18:53 N 26 16.09 Fair CLR 18.3 -3.9 22% 76.15 1012.6
02 17:53 N 24 G 41 16.09 Fair CLR 18.9 -3.3 23.3 18.9 22% 76.15 1012.9
02 16:53 NW 28 16.09 Fair CLR 21.1 -3.9 18% 76.15 1012.7
02 15:53 NW 24 G 43 16.09 Fair CLR 22.2 -5 16% 76.17 1012.6
02 14:53 NW 35 G 48 16.09 A Few Clouds and Breezy FEW110 21.1 -5.6 16% 76.2 1013.7
02 13:53 NW 24 G 43 16.09 A Few Clouds FEW100 22.2 -4.4 17% 76.2 1013.6
02 12:53 NW 26 G 44 16.09 Fair CLR 21.7 -5 16% 76.25 1014.3
02 11:53 W 17 G 33 16.09 NULL NULL 21.7 -6.7 21.7 7.2 14% 76.28 1014.7
02 10:53 NW 22 G 35 16.09 Fair CLR 20 -7.8 15% 76.3 1015.8
02 09:53 W 22 16.09 Fair CLR 18.3 -5 20% 76.33 1016.3
02 08:53 SW 20 16.09 Fair CLR 16.1 -3.9 25% 76.33 1016.7
02 07:53 SW 28 16.09 Fair CLR 12.2 -3.9 33% 76.33 1015.9
02 06:53 SW 30 16.09 Fair CLR 9.4 -3.9 39% 6 76.33 1015.7
02 05:53 SW 24 16.09 Fair CLR 7.2 -4.4 7.8 2.8 44% 4 76.33 1016.0
02 04:53 SW 24 16.09 Fair CLR 6.7 -4.4 45% 3 76.38 1016.5
02 03:53 S 24 16.09 Fair CLR 7.8 -4.4 42% 5 76.4 1016.4
02 02:53 S 20 16.09 Fair CLR 3.9 -3.9 57% 0 76.43 1017.5
02 01:53 S 20 16.09 Fair CLR 5.6 -4.4 49% 2 76.45 1017.9
02 00:53 S 24 16.09 Fair CLR 5 -3.9 53% 1 76.5 1018.3
01 23:53 S 17 16.09 Fair CLR 4.4 -3.9 16.1 1.1 55% 1 76.5 1018.8
01 22:53 S 15 16.09 Fair CLR 1.7 -2.8 72% -2 76.53 1019.6
01 21:53 S 11 16.09 Fair CLR 1.7 -2.8 72% -1 76.5 1019.8
01 20:53 SW 6 16.09 Fair CLR 2.8 -3.9 62% 76.48 1019.7
01 19:53 NE 11 16.09 Fair CLR 11.1 -2.8 38% 76.45 1018.0
01 18:53 N 20 16.09 Fair CLR 15 -3.3 28% 76.4 1017.5
01 17:53 NE 19 G 31 16.09 Fair CLR 16.1 -2.8 17.8 15.6 27% 76.4 1017.6
01 16:53 N 20 G 39 16.09 A Few Clouds FEW080 16.7 -2.8 26% 76.38 1017.0
01 15:53 N 22 16.09 A Few Clouds FEW080 17.2 -2.2 27% 76.38 1017.4
01 14:53 N 31 G 46 16.09 Fair CLR 17.8 -6.1 19% 76.4 1017.6
01 13:53 N 24 G 43 16.09 A Few Clouds FEW080 16.7 -3.9 24% 76.43 1018.4
01 12:53 N 26 G 43 16.09 Fair CLR 17.2 -5.6 21% 76.4 1018.1
01 11:53 N 33 G 41 16.09 A Few Clouds and Breezy FEW075 15.6 -3.9 15.6 2.8 26% 76.43 1018.9
01 10:53 NW 33 G 46 16.09 Light Rain and Breezy CLR 14.4 -4.4 27% 76.45 1019.5
01 09:53 NW 30 G 41 16.09 Fair CLR 13.3 -5 28% 76.45 1019.4
01 08:53 W 19 16.09 Fair CLR 11.1 -4.4 34% 76.48 1019.3
01 07:53 W 24 16.09 Fair CLR 8.9 -5 37% 6 76.45 1019.1
01 06:53 W 20 16.09 Fair CLR 5 -5 49% 1 76.43 1018.7
Date Time (mdt) Wind (kph) Vis. (km) Weather Sky Cond. Air Dwpt Max. Min. Relative Humidity Wind Chill (°C) Heat Index (°C) altimeter (cm) sea level (mb) 1 hr 3 hr 6 hr
6 hour
Temperature (ºC) Pressure Precipitation (cm)